Time;durP1;ratioP1;P1;durP2;ratioP2;P2;SDS_P1;SDS_P2;PMS_P1;PMS_P2;Temp;Humidity;BMP_temperature;BMP_pressure;BME280_temperature;BME280_humidity;BME280_pressure;Samples;Min_cycle;Max_cycle;Signal;HPM_P1;HPM_P2
2023/02/19 00:01:41;;;;;;;21.13;11.35;;;;;;;9.38;100.00;101317.59;5055713;28;20501;-55
2023/02/19 00:04:17;;;;;;;18.80;11.73;;;;;;;9.41;100.00;101315.50;5056024;28;20053;-55
2023/02/19 00:06:45;;;;;;;22.67;12.13;;;;;;;9.41;100.00;101310.22;5055683;28;20440;-55
2023/02/19 00:09:15;;;;;;;19.90;11.80;;;;;;;9.44;100.00;101311.78;5055681;28;20099;-55
2023/02/19 00:11:43;;;;;;;18.67;11.77;;;;;;;9.41;100.00;101314.69;5055761;28;20099;-56
2023/02/19 00:14:14;;;;;;;19.13;11.73;;;;;;;9.44;100.00;101316.22;5055918;28;20053;-56
2023/02/19 00:16:40;;;;;;;20.60;12.82;;;;;;;9.44;100.00;101314.44;5054783;28;20051;-56
2023/02/19 00:19:12;;;;;;;22.20;12.00;;;;;;;9.41;100.00;101309.41;5051343;28;20560;-55
2023/02/19 00:21:38;;;;;;;21.70;11.80;;;;;;;9.41;100.00;101307.56;5055573;28;20124;-56
2023/02/19 00:24:07;;;;;;;19.00;11.02;;;;;;;9.41;100.00;101312.03;5054936;28;20079;-55
2023/02/19 00:26:34;;;;;;;17.30;11.52;;;;;;;9.43;100.00;101303.97;5055630;28;20049;-56
2023/02/19 00:29:01;;;;;;;17.08;10.48;;;;;;;9.44;100.00;101314.44;5055201;28;20095;-55
2023/02/19 00:31:30;;;;;;;20.92;11.13;;;;;;;9.45;100.00;101291.44;5055609;28;20063;-55
2023/02/19 00:34:01;;;;;;;19.92;11.13;;;;;;;9.42;100.00;101292.50;5055487;28;20098;-55
2023/02/19 00:36:29;;;;;;;17.50;10.98;;;;;;;9.48;100.00;101301.72;5055056;28;20083;-56
2023/02/19 00:38:56;;;;;;;17.38;10.50;;;;;;;9.34;100.00;101300.28;5055236;28;20398;-56
2023/02/19 00:41:24;;;;;;;23.73;11.25;;;;;;;9.32;100.00;101289.00;5055364;28;20045;-56
2023/02/19 00:43:57;;;;;;;20.40;11.15;;;;;;;9.33;100.00;101283.59;5055336;28;20376;-56
2023/02/19 00:46:37;;;;;;;16.60;9.32;;;;;;;9.32;100.00;101283.72;5054941;28;20059;-55
2023/02/19 00:49:05;;;;;;;18.48;10.98;;;;;;;9.27;100.00;101280.63;5055293;28;20041;-56
2023/02/19 00:51:35;;;;;;;19.73;10.40;;;;;;;9.29;100.00;101286.63;5054616;28;20099;-55
2023/02/19 00:54:04;;;;;;;16.80;10.73;;;;;;;9.26;100.00;101292.16;5055202;28;20116;-55
2023/02/19 00:56:31;;;;;;;22.75;10.15;;;;;;;9.25;100.00;101285.22;5055050;28;20128;-55
2023/02/19 00:58:58;;;;;;;22.42;12.02;;;;;;;9.31;100.00;101280.19;5054787;28;20055;-56
2023/02/19 01:01:25;;;;;;;20.88;10.85;;;;;;;9.34;100.00;101281.75;5054075;28;20052;-55
2023/02/19 01:03:51;;;;;;;21.85;11.55;;;;;;;9.40;100.00;101278.56;5054873;28;20048;-55
2023/02/19 01:06:19;;;;;;;26.55;11.88;;;;;;;9.38;100.00;101281.34;5054441;28;20040;-56
2023/02/19 01:08:46;;;;;;;23.50;12.55;;;;;;;9.37;100.00;101281.50;5054687;28;20048;-55
2023/02/19 01:11:14;;;;;;;21.08;11.73;;;;;;;9.40;100.00;101276.78;5053375;28;20041;-56
2023/02/19 01:13:42;;;;;;;21.58;11.55;;;;;;;9.35;100.00;101276.34;5054797;28;20099;-55
2023/02/19 01:16:16;;;;;;;22.83;11.52;;;;;;;9.38;100.00;101281.34;5054821;28;20062;-55
2023/02/19 01:18:43;;;;;;;21.63;11.13;;;;;;;9.43;100.00;101273.03;5054636;28;20048;-55
2023/02/19 01:21:13;;;;;;;21.15;10.98;;;;;;;9.44;100.00;101274.72;5054599;28;20465;-55
2023/02/19 01:23:40;;;;;;;17.08;10.10;;;;;;;9.41;100.00;101275.78;5054593;28;20045;-55
2023/02/19 01:26:11;;;;;;;21.38;10.75;;;;;;;9.39;100.00;101282.22;5054591;28;20110;-55
2023/02/19 01:28:38;;;;;;;17.08;9.73;;;;;;;9.42;100.00;101279.28;5054569;28;20402;-55
2023/02/19 01:31:09;;;;;;;22.80;10.98;;;;;;;9.40;100.00;101279.44;5053488;28;20079;-54
2023/02/19 01:33:36;;;;;;;19.05;10.32;;;;;;;9.43;100.00;101280.13;5053994;28;20064;-55
2023/02/19 01:36:04;;;;;;;21.23;10.90;;;;;;;9.45;100.00;101280.84;5054369;28;20482;-55
2023/02/19 01:38:31;;;;;;;21.75;10.70;;;;;;;9.49;100.00;101284.88;5054030;28;20495;-55
2023/02/19 01:41:00;;;;;;;22.40;11.07;;;;;;;9.50;100.00;101286.56;5054332;28;20083;-55
2023/02/19 01:43:28;;;;;;;25.58;11.52;;;;;;;9.47;100.00;101287.66;5054155;28;20124;-55
2023/02/19 01:45:54;;;;;;;20.65;10.52;;;;;;;9.56;100.00;101281.56;5052441;28;20045;-54
2023/02/19 01:51:05;;;;;;;20.83;11.13;;;;;;;9.50;100.00;101282.09;5111094;27;20394;-54
2023/02/19 01:53:38;;;;;;;20.48;9.55;;;;;;;9.48;100.00;101281.41;5109690;28;20084;-54
2023/02/19 01:56:07;;;;;;;25.67;10.68;;;;;;;9.47;100.00;101287.66;5111305;28;20050;-54
2023/02/19 01:58:36;;;;;;;27.98;11.63;;;;;;;9.47;100.00;101292.97;5111077;28;20131;-54
2023/02/19 02:01:05;;;;;;;23.08;10.00;;;;;;;9.61;100.00;101289.13;5107490;28;20054;-55
2023/02/19 02:03:34;;;;;;;26.60;12.88;;;;;;;9.52;100.00;101293.41;5090236;28;20123;-55
2023/02/19 02:06:25;;;;;;;26.40;11.50;;;;;;;9.44;100.00;101284.44;5090657;28;20055;-54
2023/02/19 02:11:48;;;;;;;20.15;10.25;;;;;;;9.39;100.00;101290.16;5090376;28;20048;-54
2023/02/19 02:14:20;;;;;;;26.75;12.82;;;;;;;9.35;100.00;101280.78;5090536;28;20051;-55
2023/02/19 02:22:43;;;;;;;32.92;14.32;;;;;;;9.33;100.00;101293.31;5109942;27;20351;-54
2023/02/19 02:25:50;;;;;;;31.33;13.10;;;;;;;9.17;100.00;101289.34;5109995;28;20054;-54
2023/02/19 02:28:51;;;;;;;35.08;15.75;;;;;;;9.15;100.00;101288.66;5110786;28;20052;-54
2023/02/19 02:31:24;;;;;;;33.97;15.32;;;;;;;9.13;100.00;101287.94;5110375;28;20119;-55
2023/02/19 02:34:04;;;;;;;32.70;15.95;;;;;;;9.11;100.00;101284.56;5111015;28;20047;-55
2023/02/19 02:36:37;;;;;;;27.48;13.40;;;;;;;9.11;100.00;101289.03;5110894;28;20100;-55
2023/02/19 02:39:10;;;;;;;32.35;15.00;;;;;;;9.14;100.00;101286.97;5111039;28;20050;-54
2023/02/19 02:41:43;;;;;;;36.08;16.02;;;;;;;9.28;100.00;101288.44;5110830;28;20067;-55
2023/02/19 02:44:12;;;;;;;36.60;15.90;;;;;;;9.22;100.00;101287.16;5110914;28;20135;-55
2023/02/19 02:46:43;;;;;;;32.47;15.55;;;;;;;9.25;100.00;101290.50;5110301;28;20398;-55
2023/02/19 02:49:22;;;;;;;36.00;16.52;;;;;;;9.32;100.00;101289.84;5110911;28;20050;-54
2023/02/19 02:51:53;;;;;;;36.10;15.25;;;;;;;9.25;100.00;101287.84;5110208;28;20497;-55
2023/02/19 02:55:02;;;;;;;36.55;17.02;;;;;;;9.26;100.00;101286.88;5110654;28;20047;-54
2023/02/19 02:57:20;;;;;;;35.53;12.48;;;;;;;9.22;100.00;101283.66;5110308;28;20051;-55
2023/02/19 02:59:51;;;;;;;30.13;15.25;;;;;;;9.16;100.00;101287.66;5109715;28;20071;-55
2023/02/19 03:02:25;;;;;;;31.30;16.05;;;;;;;9.27;100.00;101293.84;5110025;28;20043;-54
2023/02/19 03:08:09;;;;;;;34.20;16.52;;;;;;;9.14;100.00;101294.91;5109937;28;20064;-55
2023/02/19 03:19:17;;;;;;;37.67;14.77;;;;;;;9.19;100.00;101297.16;5110153;28;20389;-54
2023/02/19 03:19:34;;;;;;;39.53;17.67;;;;;;;9.12;100.00;101304.78;5109957;28;20519;-55
2023/02/19 03:22:08;;;;;;;37.50;17.67;;;;;;;9.14;100.00;101310.78;5109414;28;20516;-54
2023/02/19 03:27:31;;;;;;;36.78;17.38;;;;;;;9.08;100.00;101316.59;5109778;28;20505;-55
2023/02/19 03:30:03;;;;;;;38.08;17.50;;;;;;;9.11;100.00;101316.31;5110306;28;20560;-55
2023/02/19 03:32:54;;;;;;;35.42;16.27;;;;;;;9.20;100.00;101331.44;5103528;28;20067;-55
2023/02/19 03:35:30;;;;;;;33.42;16.80;;;;;;;9.17;100.00;101329.06;5096331;28;20153;-54
2023/02/19 03:38:08;;;;;;;38.33;18.27;;;;;;;9.26;100.00;101321.28;5096101;28;20066;-55
2023/02/19 03:40:53;;;;;;;40.00;17.38;;;;;;;9.29;100.00;101332.44;5096091;28;20071;-55
2023/02/19 03:43:39;;;;;;;38.30;17.70;;;;;;;9.26;100.00;101335.38;5095768;28;20085;-55
2023/02/19 03:46:14;;;;;;;39.33;18.25;;;;;;;9.16;100.00;101334.47;5096257;28;20044;-55
2023/02/19 03:49:07;;;;;;;38.88;18.13;;;;;;;9.20;100.00;101338.53;5096123;28;20052;-55
2023/02/19 03:51:46;;;;;;;40.80;18.70;;;;;;;9.26;100.00;101331.88;5095674;28;20173;-55
2023/02/19 03:54:37;;;;;;;36.50;17.80;;;;;;;9.24;100.00;101334.69;5095794;28;20098;-54
2023/02/19 03:57:17;;;;;;;35.47;17.05;;;;;;;9.24;100.00;101337.31;5095844;28;20052;-55
2023/02/19 03:59:54;;;;;;;41.80;17.33;;;;;;;9.25;100.00;101341.63;5095273;28;20547;-55
2023/02/19 04:02:35;;;;;;;43.40;17.88;;;;;;;9.18;100.00;101337.81;5095678;28;20047;-55
2023/02/19 04:05:16;;;;;;;38.90;17.30;;;;;;;9.19;100.00;101342.16;5094519;28;20040;-55
2023/02/19 04:07:47;;;;;;;40.95;17.77;;;;;;;9.11;100.00;101347.25;5095556;28;20044;-55
2023/02/19 04:10:19;;;;;;;42.97;18.52;;;;;;;9.12;100.00;101351.59;5095548;28;20054;-55
2023/02/19 04:12:58;;;;;;;43.83;17.38;;;;;;;9.15;100.00;101351.31;5095440;28;20075;-55
2023/02/19 04:15:30;;;;;;;42.67;17.85;;;;;;;9.16;100.00;101355.66;5095676;28;20040;-56
2023/02/19 04:18:06;;;;;;;39.97;16.45;;;;;;;9.15;100.00;101362.75;5095623;28;20040;-56
2023/02/19 04:20:41;;;;;;;37.58;18.73;;;;;;;9.15;100.00;101364.53;5091020;28;20241;-54
2023/02/19 04:23:08;;;;;;;45.10;18.38;;;;;;;9.15;100.00;101367.19;5094542;28;20043;-56
2023/02/19 04:25:37;;;;;;;43.47;18.95;;;;;;;9.19;100.00;101373.94;5095059;28;20047;-56
2023/02/19 04:28:04;;;;;;;41.83;19.35;;;;;;;9.17;100.00;101371.41;5095131;28;20512;-56
2023/02/19 04:30:31;;;;;;;37.90;18.77;;;;;;;9.14;100.00;101387.53;5093626;28;20093;-54
2023/02/19 04:32:57;;;;;;;39.75;19.70;;;;;;;9.21;100.00;101379.94;5095028;28;20039;-55
2023/02/19 04:35:24;;;;;;;41.47;18.90;;;;;;;9.19;100.00;101377.41;5095225;28;20055;-56
2023/02/19 04:37:51;;;;;;;40.08;19.25;;;;;;;9.13;100.00;101385.88;5094996;28;20044;-55
2023/02/19 04:40:18;;;;;;;42.08;18.17;;;;;;;9.14;100.00;101384.91;5094929;28;20036;-55
2023/02/19 04:42:44;;;;;;;41.03;18.80;;;;;;;9.16;100.00;101398.00;5094840;28;20051;-55
2023/02/19 04:45:11;;;;;;;43.83;18.45;;;;;;;9.20;100.00;101380.88;5093859;28;20450;-55
2023/02/19 04:47:38;;;;;;;38.58;17.65;;;;;;;9.14;100.00;101398.13;5094990;28;20040;-55
2023/02/19 04:50:05;;;;;;;38.75;17.73;;;;;;;9.15;100.00;101402.47;5095090;28;20097;-55
2023/02/19 04:52:32;;;;;;;36.72;16.48;;;;;;;9.22;100.00;101406.28;5093020;28;20412;-56
2023/02/19 04:54:58;;;;;;;44.17;17.65;;;;;;;9.15;100.00;101407.75;5094432;28;20444;-55
2023/02/19 04:57:25;;;;;;;47.95;19.30;;;;;;;9.21;100.00;101403.75;5094652;28;20557;-55
2023/02/19 04:59:52;;;;;;;42.63;17.70;;;;;;;9.03;100.00;101406.13;5094372;28;20121;-55
2023/02/19 05:02:18;;;;;;;41.35;17.77;;;;;;;9.10;100.00;101415.25;5094223;28;20504;-55
2023/02/19 05:04:46;;;;;;;42.17;17.27;;;;;;;9.05;100.00;101408.66;5094619;28;20048;-55
2023/02/19 05:07:13;;;;;;;39.70;17.83;;;;;;;9.06;100.00;101423.56;5093099;28;20134;-55
2023/02/19 05:09:39;;;;;;;47.13;17.85;;;;;;;9.09;100.00;101425.97;5093309;28;20073;-55
2023/02/19 05:12:06;;;;;;;35.80;16.75;;;;;;;9.16;100.00;101427.13;5094325;28;20052;-55
2023/02/19 05:14:33;;;;;;;37.95;17.05;;;;;;;9.22;100.00;101430.09;5094080;28;20074;-55
2023/02/19 05:17:00;;;;;;;36.65;16.58;;;;;;;9.26;100.00;101430.69;5093276;28;20047;-55
2023/02/19 05:19:26;;;;;;;39.83;16.90;;;;;;;9.19;100.00;101443.59;5094133;28;20044;-54
2023/02/19 05:21:53;;;;;;;36.47;16.00;;;;;;;9.26;100.00;101440.41;5093771;28;20113;-54
2023/02/19 05:24:19;;;;;;;38.00;16.50;;;;;;;9.15;100.00;101439.53;5094189;28;20047;-55
2023/02/19 05:26:47;;;;;;;34.53;16.10;;;;;;;9.15;100.00;101452.75;5094048;28;20072;-55
2023/02/19 05:29:14;;;;;;;35.78;16.45;;;;;;;9.30;100.00;101453.28;5094244;28;20044;-55
2023/02/19 05:31:41;;;;;;;38.42;15.88;;;;;;;9.27;100.00;101460.66;5094343;28;20414;-54
2023/02/19 05:34:07;;;;;;;34.58;16.73;;;;;;;9.25;100.00;101457.28;5093636;28;20518;-55
2023/02/19 05:36:36;;;;;;;38.55;17.83;;;;;;;9.19;100.00;101464.78;5093019;28;20048;-55
2023/02/19 05:39:05;;;;;;;43.40;16.85;;;;;;;9.23;100.00;101468.00;5093901;28;20040;-55
2023/02/19 05:41:32;;;;;;;41.67;18.52;;;;;;;9.13;100.00;101470.59;5093913;28;20389;-55
2023/02/19 05:43:59;;;;;;;57.35;22.75;;;;;;;9.15;100.00;101479.22;5093917;28;20048;-55
2023/02/19 05:46:28;;;;;;;54.90;21.98;;;;;;;9.13;100.00;101469.72;5093940;28;20067;-55
2023/02/19 05:48:57;;;;;;;56.85;25.17;;;;;;;9.03;100.00;101472.28;5093975;28;20497;-55
2023/02/19 05:51:25;;;;;;;59.08;27.38;;;;;;;9.16;100.00;101486.19;5093665;28;20505;-55
2023/02/19 05:53:52;;;;;;;49.95;26.23;;;;;;;9.13;100.00;101490.91;5092269;28;20044;-55
2023/02/19 05:56:34;;;;;;;46.55;21.30;;;;;;;9.00;100.00;101491.06;5093522;28;20131;-56
2023/02/19 05:59:06;;;;;;;46.35;20.70;;;;;;;9.05;100.00;101488.06;5093563;28;20044;-56
2023/02/19 06:01:33;;;;;;;42.85;17.83;;;;;;;9.03;100.00;101485.53;5092794;28;20432;-55
2023/02/19 06:04:00;;;;;;;40.53;16.45;;;;;;;8.90;100.00;101490.16;5093756;28;20124;-55
2023/02/19 06:06:27;;;;;;;38.03;16.30;;;;;;;8.83;100.00;101488.00;5093544;28;20052;-54
2023/02/19 06:08:54;;;;;;;32.80;14.20;;;;;;;8.80;100.00;101493.56;5092988;28;20091;-54
2023/02/19 06:11:22;;;;;;;38.25;14.80;;;;;;;8.85;100.00;101498.44;5093517;28;20048;-55
2023/02/19 06:13:49;;;;;;;42.58;15.93;;;;;;;8.90;100.00;101506.03;5093601;28;20105;-56
2023/02/19 06:16:16;;;;;;;38.17;15.60;;;;;;;8.82;100.00;101496.03;5093519;28;20569;-55
2023/02/19 06:18:44;;;;;;;42.63;14.40;;;;;;;8.75;100.00;101498.38;5093548;28;20494;-56
2023/02/19 06:21:12;;;;;;;45.28;16.58;;;;;;;8.78;100.00;101497.25;5088699;28;20052;-56
2023/02/19 06:23:39;;;;;;;39.47;16.08;;;;;;;8.75;100.00;101502.78;5090266;28;20047;-55
2023/02/19 06:26:08;;;;;;;38.13;14.75;;;;;;;8.72;100.00;101505.72;5091940;28;20058;-54
2023/02/19 06:28:35;;;;;;;34.35;13.60;;;;;;;8.68;100.00;101505.13;5093135;28;20497;-55
2023/02/19 06:31:03;;;;;;;37.90;14.48;;;;;;;8.72;100.00;101503.91;5092885;28;20449;-54
2023/02/19 06:33:30;;;;;;;35.90;15.38;;;;;;;8.75;100.00;101508.09;5093331;28;20044;-55
2023/02/19 06:36:02;;;;;;;33.70;14.90;;;;;;;8.81;100.00;101519.03;5093327;28;20044;-55
2023/02/19 06:38:29;;;;;;;;;;;;;;;8.74;100.00;101520.47;5093447;28;20051;-56
2023/02/19 06:41:00;;;;;;;41.97;14.00;;;;;;;8.68;100.00;101526.28;5093406;28;19924;-56
2023/02/19 06:43:27;;;;;;;32.92;14.02;;;;;;;8.73;100.00;101525.88;5093260;28;20530;-56
2023/02/19 06:45:57;;;;;;;42.17;14.52;;;;;;;8.81;100.00;101528.78;5093151;28;20051;-55
2023/02/19 06:48:26;;;;;;;32.78;13.35;;;;;;;8.86;100.00;101525.75;5093075;28;20072;-55
2023/02/19 06:50:53;;;;;;;36.03;14.55;;;;;;;8.71;100.00;101528.66;5092844;28;20044;-55
2023/02/19 06:53:21;;;;;;;34.38;14.18;;;;;;;8.77;100.00;101538.75;5092783;28;20048;-55
2023/02/19 06:55:57;;;;;;;32.20;13.45;;;;;;;8.84;100.00;101539.94;5091979;28;20048;-55
2023/02/19 06:58:25;;;;;;;29.33;12.85;;;;;;;8.67;100.00;101543.09;5093024;28;20078;-56
2023/02/19 07:00:52;;;;;;;37.13;12.95;;;;;;;8.77;100.00;101548.50;5092358;28;20039;-55
2023/02/19 07:03:19;;;;;;;35.28;12.38;;;;;;;8.70;100.00;101561.38;5093049;28;20489;-55
2023/02/19 07:05:46;;;;;;;34.70;12.48;;;;;;;8.72;100.00;101563.91;5087451;28;20048;-55
2023/02/19 07:08:16;;;;;;;35.45;12.13;;;;;;;8.73;100.00;101574.38;5088060;28;20102;-55
2023/02/19 07:10:44;;;;;;;29.73;12.48;;;;;;;8.68;100.00;101571.25;5076412;28;20379;-55
2023/02/19 07:13:11;;;;;;;31.35;11.68;;;;;;;8.84;100.00;101578.78;5076165;28;20110;-55
2023/02/19 07:15:38;;;;;;;28.90;12.52;;;;;;;8.86;100.00;101571.59;5076378;28;20076;-55
2023/02/19 07:18:09;;;;;;;23.45;9.80;;;;;;;8.98;100.00;101575.88;5076516;28;20049;-55
2023/02/19 07:20:36;;;;;;;32.22;10.70;;;;;;;8.97;100.00;101581.31;5083989;28;20052;-55
2023/02/19 07:23:03;;;;;;;31.75;10.63;;;;;;;8.88;100.00;101585.53;5096080;28;20089;-55
2023/02/19 07:25:29;;;;;;;37.08;10.55;;;;;;;8.83;100.00;101591.19;5096436;28;20040;-56
2023/02/19 07:27:56;;;;;;;33.88;10.65;;;;;;;8.90;100.00;101588.91;5096505;28;20097;-55
2023/02/19 07:30:23;;;;;;;21.67;9.90;;;;;;;8.97;100.00;101600.66;5096219;28;20379;-55
2023/02/19 07:32:50;;;;;;;33.35;10.43;;;;;;;8.97;100.00;101605.97;5096063;28;20040;-56
2023/02/19 07:35:16;;;;;;;29.88;10.50;;;;;;;9.02;100.00;101614.38;5096118;28;20048;-55
2023/02/19 07:37:43;;;;;;;26.08;9.30;;;;;;;8.93;100.00;101612.47;5096231;28;20089;-55
2023/02/19 07:40:09;;;;;;;29.25;10.48;;;;;;;8.96;100.00;101620.16;5096337;28;20440;-55
2023/02/19 07:42:36;;;;;;;26.73;9.27;;;;;;;8.83;100.00;101620.28;5096050;28;20059;-55
2023/02/19 07:45:04;;;;;;;28.08;10.23;;;;;;;8.83;100.00;101625.56;5096114;28;20077;-55
2023/02/19 07:47:31;;;;;;;28.17;9.80;;;;;;;8.93;100.00;101630.13;5096168;28;20056;-55
2023/02/19 07:49:58;;;;;;;25.88;9.65;;;;;;;8.91;100.00;101635.53;5092567;28;20044;-55
2023/02/19 07:52:25;;;;;;;26.65;9.45;;;;;;;8.92;100.00;101639.06;5094615;28;20046;-55
2023/02/19 07:54:51;;;;;;;24.95;9.20;;;;;;;8.96;100.00;101643.13;5094501;28;20044;-55
2023/02/19 07:57:18;;;;;;;24.25;10.13;;;;;;;8.88;100.00;101648.16;5095863;28;20052;-55
2023/02/19 07:59:45;;;;;;;28.17;9.82;;;;;;;8.96;100.00;101659.84;5094166;28;20044;-55
2023/02/19 08:05:03;;;;;;;31.17;9.95;;;;;;;8.79;100.00;101663.00;5094156;28;20378;-55
2023/02/19 08:07:33;;;;;;;29.35;9.75;;;;;;;8.79;100.00;101653.25;5095461;28;20044;-55
2023/02/19 08:13:29;;;;;;;30.98;10.25;;;;;;;8.66;100.00;101668.41;5089684;28;20040;-55
2023/02/19 08:15:45;;;;;;;31.35;10.50;;;;;;;8.71;100.00;101676.78;5095294;28;20039;-56
2023/02/19 08:18:13;;;;;;;34.83;10.68;;;;;;;8.82;100.00;101665.38;5095643;28;20044;-56
2023/02/19 08:20:40;;;;;;;26.13;11.43;;;;;;;8.91;100.00;101677.06;5095130;28;20044;-51
2023/02/19 08:23:07;;;;;;;29.95;10.82;;;;;;;9.03;100.00;101676.94;5074567;28;20402;-54
2023/02/19 08:25:34;;;;;;;30.33;10.45;;;;;;;8.94;100.00;101669.72;5073911;28;20139;-54
2023/02/19 08:28:01;;;;;;;36.45;10.23;;;;;;;8.93;100.00;101677.75;5074885;28;20559;-55
2023/02/19 08:30:29;;;;;;;26.48;9.38;;;;;;;8.87;100.00;101696.78;5073650;28;20432;-54
2023/02/19 08:32:57;;;;;;;30.75;10.20;;;;;;;8.93;100.00;101696.28;5074817;28;20043;-55
2023/02/19 08:35:26;;;;;;;41.35;10.82;;;;;;;8.91;100.00;101696.41;5074551;28;20044;-54
2023/02/19 08:37:55;;;;;;;32.20;10.82;;;;;;;8.96;100.00;101701.34;5088294;28;20074;-55
2023/02/19 08:40:24;;;;;;;30.63;10.07;;;;;;;9.01;100.00;101696.53;5094834;28;20048;-54
2023/02/19 08:42:51;;;;;;;33.25;9.73;;;;;;;8.95;100.00;101697.00;5094945;28;20048;-55
2023/02/19 08:45:17;;;;;;;30.27;11.55;;;;;;;8.93;100.00;101696.28;5094705;28;20047;-55
2023/02/19 08:47:45;;;;;;;38.45;11.45;;;;;;;8.98;100.00;101683.53;5094759;28;20044;-56
2023/02/19 08:50:11;;;;;;;32.10;11.63;;;;;;;9.06;100.00;101694.38;5093338;28;20044;-55
2023/02/19 08:52:38;;;;;;;30.75;10.32;;;;;;;9.25;100.00;101699.06;5094282;28;20032;-55
2023/02/19 08:55:06;;;;;;;29.40;9.50;;;;;;;9.40;100.00;101697.84;5094281;28;20040;-55
2023/02/19 08:57:36;;;;;;;33.05;10.30;;;;;;;9.38;100.00;101712.16;5094403;28;20051;-55
2023/02/19 09:00:04;;;;;;;34.67;10.95;;;;;;;9.29;100.00;101711.06;5094012;28;20059;-55
2023/02/19 09:02:31;;;;;;;31.52;11.50;;;;;;;9.23;100.00;101709.75;5093979;28;20109;-55
2023/02/19 09:04:58;;;;;;;29.73;11.27;;;;;;;9.25;100.00;101704.34;5094460;28;20044;-55
2023/02/19 09:07:25;;;;;;;38.63;11.27;;;;;;;9.22;100.00;101699.28;5094026;28;20439;-55
2023/02/19 09:09:51;;;;;;;33.08;12.48;;;;;;;9.16;100.00;101702.44;5093287;28;20040;-55
2023/02/19 09:12:19;;;;;;;31.30;11.50;;;;;;;9.15;100.00;101709.53;5094307;28;20076;-55
2023/02/19 09:14:45;;;;;;;38.53;11.75;;;;;;;9.17;100.00;101717.38;5094454;28;20493;-55
2023/02/19 09:17:12;;;;;;;34.20;11.95;;;;;;;9.12;100.00;101725.66;5093889;28;20397;-55
2023/02/19 09:19:39;;;;;;;30.58;12.85;;;;;;;9.16;100.00;101742.13;5093980;28;20530;-55
2023/02/19 09:22:05;;;;;;;36.47;11.95;;;;;;;9.10;100.00;101734.69;5073324;28;20063;-54
2023/02/19 09:24:32;;;;;;;35.80;13.30;;;;;;;9.18;100.00;101737.56;5088867;28;20097;-55
2023/02/19 09:26:59;;;;;;;33.72;13.18;;;;;;;9.25;100.00;101741.41;5092350;28;20538;-55
2023/02/19 09:29:27;;;;;;;37.72;11.45;;;;;;;9.20;100.00;101747.09;5094138;28;20074;-55
2023/02/19 09:31:56;;;;;;;29.05;10.57;;;;;;;9.01;100.00;101749.47;5093230;28;20044;-55
2023/02/19 09:34:24;;;;;;;31.75;12.25;;;;;;;9.00;100.00;101750.44;5092871;28;20032;-55
2023/02/19 09:36:51;;;;;;;29.85;10.85;;;;;;;9.02;100.00;101751.16;5093117;28;20040;-55
2023/02/19 09:39:19;;;;;;;24.33;10.02;;;;;;;9.04;100.00;101746.59;5093084;28;20071;-56
2023/02/19 09:41:50;;;;;;;30.95;12.43;;;;;;;9.12;100.00;101752.13;5093145;28;20048;-55
2023/02/19 09:44:26;;;;;;;30.35;13.15;;;;;;;9.33;100.00;101764.63;5093282;28;20036;-56
2023/02/19 09:46:54;;;;;;;30.17;12.82;;;;;;;9.23;100.00;101749.47;5093299;28;20478;-56
2023/02/19 09:49:39;;;;;;;28.30;11.10;;;;;;;9.08;100.00;101745.41;5091909;28;20040;-55
2023/02/19 09:52:15;;;;;;;22.85;10.25;;;;;;;9.06;100.00;101747.31;5073393;28;20075;-55
2023/02/19 09:54:44;;;;;;;27.58;12.20;;;;;;;8.95;100.00;101749.94;5072801;28;20119;-56
2023/02/19 09:57:20;;;;;;;23.65;11.15;;;;;;;9.02;100.00;101754.66;5073529;28;20044;-55
2023/02/19 09:59:50;;;;;;;20.80;9.38;;;;;;;8.88;100.00;101761.94;5072785;28;20048;-55
2023/02/19 10:02:20;;;;;;;23.48;11.98;;;;;;;8.86;100.00;101761.22;5085795;28;20040;-56
2023/02/19 10:04:50;;;;;;;24.35;10.70;;;;;;;8.78;100.00;101773.25;5092854;28;20119;-55
2023/02/19 10:07:22;;;;;;;24.25;9.38;;;;;;;8.94;100.00;101786.16;5093425;28;20043;-55
2023/02/19 10:09:56;;;;;;;25.25;8.82;;;;;;;9.00;100.00;101793.63;5093255;28;20516;-55
2023/02/19 10:12:27;;;;;;;25.73;8.00;;;;;;;9.07;100.00;101804.56;5093176;28;20379;-55
2023/02/19 10:15:04;;;;;;;23.80;7.75;;;;;;;9.00;100.00;101808.66;5093280;28;20052;-55
2023/02/19 10:17:33;;;;;;;22.33;7.18;;;;;;;9.08;100.00;101819.50;5093572;28;20047;-54
2023/02/19 10:20:04;;;;;;;23.30;7.20;;;;;;;9.13;100.00;101838.53;5093333;28;20494;-55
2023/02/19 10:22:34;;;;;;;24.73;8.52;;;;;;;9.27;100.00;101847.22;5092808;28;20056;-55
2023/02/19 10:25:01;;;;;;;25.42;7.57;;;;;;;9.41;100.00;101831.94;5093067;28;20066;-55
2023/02/19 10:27:29;;;;;;;18.70;7.25;;;;;;;9.77;100.00;101831.81;5093452;28;20043;-55
2023/02/19 10:29:58;;;;;;;19.75;7.05;;;;;;;10.25;100.00;101830.63;5092983;28;20044;-55
2023/02/19 10:32:26;;;;;;;18.42;7.50;;;;;;;10.07;100.00;101836.44;5093183;28;20043;-55
2023/02/19 10:35:13;;;;;;;23.10;7.57;;;;;;;10.10;100.00;101840.69;5093279;28;20051;-54
2023/02/19 10:37:43;;;;;;;18.90;6.68;;;;;;;9.96;100.00;101847.91;5090658;28;20450;-54
2023/02/19 10:40:17;;;;;;;18.55;8.30;;;;;;;10.01;100.00;101852.03;5092849;28;20048;-54
2023/02/19 10:42:51;;;;;;;17.63;6.78;;;;;;;9.91;100.00;101849.25;5076522;28;20131;-55
2023/02/19 10:45:40;;;;;;;15.80;6.60;;;;;;;9.71;100.00;101858.78;5096963;28;20101;-56
2023/02/19 10:48:23;;;;;;;15.48;6.40;;;;;;;9.70;100.00;101854.47;5097026;28;20060;-58
2023/02/19 10:50:55;;;;;;;18.70;7.25;;;;;;;9.79;100.00;101854.56;5092861;28;20040;-55
2023/02/19 10:53:41;;;;;;;17.60;6.80;;;;;;;9.65;100.00;101857.47;5093302;28;20192;-55
2023/02/19 10:56:13;;;;;;;18.33;7.60;;;;;;;9.76;100.00;101861.91;5094669;28;20566;-55
2023/02/19 10:58:43;;;;;;;20.08;7.60;;;;;;;9.81;100.00;101862.41;5104023;28;20049;-55
2023/02/19 11:01:20;;;;;;;17.00;7.32;;;;;;;9.99;100.00;101870.69;5102922;28;20043;-55
2023/02/19 11:03:50;;;;;;;19.45;7.97;;;;;;;10.15;100.00;101873.81;5098494;28;20032;-55
2023/02/19 11:06:24;;;;;;;18.52;6.85;;;;;;;10.25;98.78;101878.38;5081388;28;20072;-54
2023/02/19 11:08:56;;;;;;;18.70;7.53;;;;;;;10.15;99.46;101888.84;5071869;28;20053;-55
2023/02/19 11:11:33;;;;;;;;;;;;;;;10.06;99.36;101892.25;5096095;27;20071;-55
2023/02/19 11:14:14;;;;;;;17.83;7.28;;;;;;;9.72;100.00;101892.28;5096945;28;19919;-55
2023/02/19 11:16:48;;;;;;;17.55;7.57;;;;;;;9.42;100.00;101901.63;5117316;28;20130;-55
2023/02/19 11:19:23;;;;;;;16.10;7.55;;;;;;;9.34;100.00;101890.78;5096329;28;20139;-55
2023/02/19 11:21:50;;;;;;;20.23;7.72;;;;;;;9.31;100.00;101889.22;5096456;28;20497;-55
2023/02/19 11:24:36;;;;;;;15.82;7.13;;;;;;;9.24;100.00;101885.38;5096193;28;20546;-55
2023/02/19 11:27:06;;;;;;;21.13;8.65;;;;;;;9.17;100.00;101882.34;5107723;28;20075;-55
2023/02/19 11:29:34;;;;;;;20.08;8.50;;;;;;;9.13;100.00;101880.03;5081681;28;20048;-55
2023/02/19 11:32:23;;;;;;;20.10;9.65;;;;;;;9.12;100.00;101888.94;5093448;28;20532;-55
2023/02/19 11:34:50;;;;;;;19.08;9.20;;;;;;;9.11;100.00;101879.31;5108854;28;20133;-55
2023/02/19 11:37:20;;;;;;;24.65;8.77;;;;;;;9.17;100.00;101879.69;5093159;28;20043;-55
2023/02/19 11:39:49;;;;;;;19.48;9.05;;;;;;;9.09;100.00;101878.59;5082702;28;20056;-55
2023/02/19 11:42:40;;;;;;;18.35;8.65;;;;;;;9.03;100.00;101874.59;5081619;28;20064;-56
2023/02/19 11:45:46;;;;;;;18.25;8.20;;;;;;;9.12;100.00;101868.59;5086465;28;20036;-56
2023/02/19 11:48:29;;;;;;;19.23;9.23;;;;;;;9.01;100.00;101866.78;5089418;28;20121;-56
2023/02/19 11:51:23;;;;;;;24.17;10.20;;;;;;;8.92;100.00;101869.28;5092799;28;20040;-56
2023/02/19 11:54:17;;;;;;;27.83;11.45;;;;;;;8.92;100.00;101864.00;5092919;28;20118;-56
2023/02/19 11:56:51;;;;;;;27.83;11.95;;;;;;;8.76;100.00;101862.47;5093023;28;20052;-56
2023/02/19 11:59:37;;;;;;;27.35;12.75;;;;;;;8.80;100.00;101866.59;5093473;28;20052;-56